Time;durP1;ratioP1;P1;durP2;ratioP2;P2;SDS_P1;SDS_P2;PMS_P1;PMS_P2;Temp;Humidity;BMP_temperature;BMP_pressure;BME280_temperature;BME280_humidity;BME280_pressure;Samples;Min_cycle;Max_cycle;Signal;HPM_P1;HPM_P2
2021/01/23 00:01:25;;;;;;;56.20;27.92;;;;;;;;;;6221148;23;20020;-87
2021/01/23 00:03:55;;;;;;;51.38;27.45;;;;;;;;;;6220476;23;20024;-87
2021/01/23 00:06:24;;;;;;;50.13;26.08;;;;;;;;;;6221175;23;20088;-87
2021/01/23 00:08:54;;;;;;;56.03;28.20;;;;;;;;;;6246313;23;20030;-87
2021/01/23 00:11:22;;;;;;;60.13;27.45;;;;;;;;;;6223934;23;20024;-86
2021/01/23 00:13:49;;;;;;;56.10;28.80;;;;;;;;;;6248390;23;20044;-86
2021/01/23 00:16:18;;;;;;;57.85;28.20;;;;;;;;;;6247906;23;20024;-86
2021/01/23 00:18:44;;;;;;;59.78;27.52;;;;;;;;;;6222740;23;20059;-86
2021/01/23 00:21:12;;;;;;;51.53;27.85;;;;;;;;;;6223134;23;20024;-85
2021/01/23 00:23:52;;;;;;;62.45;29.75;;;;;;;;;;6224231;23;20035;-86
2021/01/23 00:26:18;;;;;;;52.10;27.85;;;;;;;;;;6223346;23;20055;-85
2021/01/23 00:28:46;;;;;;;53.25;27.65;;;;;;;;;;6239690;22;20012;-86
2021/01/23 00:31:14;;;;;;;56.90;28.60;;;;;;;;;;6237308;22;20028;-86
2021/01/23 00:33:40;;;;;;;47.95;27.35;;;;;;;;;;6223488;23;20435;-86
2021/01/23 00:36:08;;;;;;;49.13;25.98;;;;;;;;;;6217835;23;709303;-86
2021/01/23 00:38:35;;;;;;;64.97;28.98;;;;;;;;;;6250524;23;20024;-85
2021/01/23 00:41:02;;;;;;;48.45;26.25;;;;;;;;;;6248572;23;20024;-85
2021/01/23 00:43:30;;;;;;;48.78;25.35;;;;;;;;;;6249858;23;20054;-86
2021/01/23 00:45:59;;;;;;;48.50;25.23;;;;;;;;;;6249490;23;20055;-86
2021/01/23 00:48:25;;;;;;;49.97;25.92;;;;;;;;;;6229241;23;20097;-88
2021/01/23 00:50:51;;;;;;;49.03;25.60;;;;;;;;;;6225349;23;20089;-88
2021/01/23 00:53:17;;;;;;;48.17;25.45;;;;;;;;;;6224586;23;20428;-88
2021/01/23 00:55:43;;;;;;;50.45;25.80;;;;;;;;;;6230215;23;20020;-88
2021/01/23 00:58:10;;;;;;;49.95;26.40;;;;;;;;;;6241631;22;20039;-88
2021/01/23 01:00:48;;;;;;;44.85;24.90;;;;;;;;;;6222952;23;20035;-88
2021/01/23 01:03:16;;;;;;;46.65;25.23;;;;;;;;;;6235166;23;20028;-88
2021/01/23 01:05:43;;;;;;;52.92;25.45;;;;;;;;;;6228315;23;20147;-88
2021/01/23 01:08:09;;;;;;;49.67;26.27;;;;;;;;;;6252120;23;20024;-88
2021/01/23 01:10:35;;;;;;;50.78;25.73;;;;;;;;;;6225997;23;20031;-88
2021/01/23 01:13:04;;;;;;;51.55;26.83;;;;;;;;;;6251553;23;20365;-88
2021/01/23 01:15:31;;;;;;;51.95;27.27;;;;;;;;;;6223409;23;20028;-88
2021/01/23 01:17:57;;;;;;;55.63;27.00;;;;;;;;;;6253879;23;20028;-88
2021/01/23 01:20:23;;;;;;;50.63;26.42;;;;;;;;;;6225453;23;20024;-88
2021/01/23 01:22:50;;;;;;;49.00;26.40;;;;;;;;;;6225154;23;20107;-88
2021/01/23 01:25:16;;;;;;;51.13;27.83;;;;;;;;;;6224910;23;20035;-87
2021/01/23 01:27:42;;;;;;;53.75;28.20;;;;;;;;;;6251168;23;20426;-88
2021/01/23 01:30:08;;;;;;;55.63;27.95;;;;;;;;;;6225651;23;20019;-88
2021/01/23 01:32:35;;;;;;;60.00;28.92;;;;;;;;;;6222687;23;20082;-88
2021/01/23 01:35:02;;;;;;;62.38;28.95;;;;;;;;;;6221705;23;20040;-88
2021/01/23 01:37:31;;;;;;;54.90;28.13;;;;;;;;;;6230837;23;20421;-88
2021/01/23 01:40:05;;;;;;;55.35;29.40;;;;;;;;;;6232761;23;20086;-88
2021/01/23 01:42:35;;;;;;;51.97;27.95;;;;;;;;;;6250902;23;20403;-88
2021/01/23 01:45:02;;;;;;;60.17;28.08;;;;;;;;;;6225530;23;20024;-86
2021/01/23 01:47:29;;;;;;;52.58;27.27;;;;;;;;;;6226118;23;20034;-85
2021/01/23 01:49:57;;;;;;;49.92;26.83;;;;;;;;;;6224273;23;20028;-85
2021/01/23 01:52:31;;;;;;;55.17;27.80;;;;;;;;;;6250521;23;20080;-87
2021/01/23 01:55:08;;;;;;;58.47;29.75;;;;;;;;;;6223003;23;20330;-87
2021/01/23 01:57:34;;;;;;;61.35;29.50;;;;;;;;;;6249883;23;20047;-88
2021/01/23 02:00:00;;;;;;;61.47;30.00;;;;;;;;;;6249215;23;20035;-88
2021/01/23 02:02:51;;;;;;;65.18;29.15;;;;;;;;;;6227734;23;20035;-88
2021/01/23 02:05:17;;;;;;;62.38;29.08;;;;;;;;;;6222632;23;20035;-89
2021/01/23 02:07:53;;;;;;;62.78;30.17;;;;;;;;;;6223377;23;20028;-88
2021/01/23 02:10:22;;;;;;;61.60;29.73;;;;;;;;;;6221303;23;20060;-89
2021/01/23 02:13:08;;;;;;;52.60;29.17;;;;;;;;;;6249265;23;20042;-89
2021/01/23 02:15:39;;;;;;;62.72;29.25;;;;;;;;;;6250430;23;20024;-88
2021/01/23 02:18:08;;;;;;;71.55;29.25;;;;;;;;;;6223582;23;20310;-88
2021/01/23 02:20:46;;;;;;;61.17;30.52;;;;;;;;;;6249550;23;20048;-89
2021/01/23 02:23:22;;;;;;;60.17;29.52;;;;;;;;;;6249713;23;20099;-89
2021/01/23 02:26:04;;;;;;;61.95;29.38;;;;;;;;;;6225360;23;20032;-89
2021/01/23 02:28:30;;;;;;;59.85;29.35;;;;;;;;;;6223138;23;20491;-87
2021/01/23 02:31:26;;;;;;;60.40;29.90;;;;;;;;;;6222895;23;20091;-87
2021/01/23 02:33:53;;;;;;;51.65;28.52;;;;;;;;;;6196033;23;20091;-89
2021/01/23 02:36:23;;;;;;;62.63;30.02;;;;;;;;;;6223735;23;20024;-89
2021/01/23 02:38:50;;;;;;;62.75;29.05;;;;;;;;;;6248264;23;20024;-87
2021/01/23 02:41:18;;;;;;;55.90;28.02;;;;;;;;;;6222579;23;20028;-87
2021/01/23 02:43:46;;;;;;;64.97;29.00;;;;;;;;;;6223047;23;20035;-88
2021/01/23 02:46:16;;;;;;;61.72;29.75;;;;;;;;;;6253725;23;20035;-88
2021/01/23 02:48:47;;;;;;;55.83;28.02;;;;;;;;;;6250636;23;20281;-88
2021/01/23 02:51:22;;;;;;;50.88;28.30;;;;;;;;;;6224163;23;20024;-88
2021/01/23 02:53:52;;;;;;;53.10;28.83;;;;;;;;;;6241791;22;20016;-87
2021/01/23 02:56:24;;;;;;;56.28;29.20;;;;;;;;;;6242414;22;20027;-88
2021/01/23 02:58:55;;;;;;;59.55;29.75;;;;;;;;;;6231932;22;20024;-88
2021/01/23 03:01:22;;;;;;;63.38;30.48;;;;;;;;;;6223076;23;20034;-88
2021/01/23 03:03:55;;;;;;;58.70;29.48;;;;;;;;;;6223338;23;20040;-88
2021/01/23 03:06:22;;;;;;;56.40;29.50;;;;;;;;;;6242091;22;20055;-88
2021/01/23 03:08:48;;;;;;;69.30;31.23;;;;;;;;;;6240843;22;20012;-87
2021/01/23 03:11:17;;;;;;;61.33;31.42;;;;;;;;;;6251968;23;20031;-88
2021/01/23 03:13:43;;;;;;;57.47;31.17;;;;;;;;;;6252299;23;20044;-87
2021/01/23 03:16:10;;;;;;;62.35;31.02;;;;;;;;;;6251139;23;20030;-88
2021/01/23 03:18:36;;;;;;;65.22;30.60;;;;;;;;;;6233637;22;20092;-88
2021/01/23 03:21:06;;;;;;;60.65;28.90;;;;;;;;;;6243537;22;20165;-88
2021/01/23 03:23:32;;;;;;;64.63;31.38;;;;;;;;;;6245016;22;20015;-88
2021/01/23 03:26:02;;;;;;;64.40;30.45;;;;;;;;;;6241804;22;20016;-88
2021/01/23 03:28:29;;;;;;;68.20;31.77;;;;;;;;;;6268627;22;20024;-87
2021/01/23 03:30:55;;;;;;;61.55;28.95;;;;;;;;;;6254169;23;20295;-87
2021/01/23 03:33:21;;;;;;;65.18;32.15;;;;;;;;;;6250592;23;20035;-88
2021/01/23 03:35:47;;;;;;;65.75;32.47;;;;;;;;;;6222494;23;20028;-88
2021/01/23 03:38:13;;;;;;;65.25;31.15;;;;;;;;;;6222867;23;20028;-88
2021/01/23 03:40:39;;;;;;;64.55;29.67;;;;;;;;;;6253965;23;20031;-88
2021/01/23 03:43:05;;;;;;;69.35;32.42;;;;;;;;;;6252334;23;20406;-88
2021/01/23 03:45:31;;;;;;;64.30;31.13;;;;;;;;;;6264814;22;20032;-87
2021/01/23 03:47:57;;;;;;;64.20;32.13;;;;;;;;;;6239991;22;20040;-87
2021/01/23 03:50:23;;;;;;;58.97;29.30;;;;;;;;;;6240899;23;20052;-88
2021/01/23 03:52:49;;;;;;;63.90;31.25;;;;;;;;;;6257746;23;20447;-87
2021/01/23 03:55:15;;;;;;;67.43;30.55;;;;;;;;;;6249651;23;20032;-88
2021/01/23 03:57:42;;;;;;;62.78;31.30;;;;;;;;;;6249995;23;20370;-87
2021/01/23 04:00:15;;;;;;;62.85;30.10;;;;;;;;;;6222914;23;20078;-88
2021/01/23 04:02:44;;;;;;;59.15;29.00;;;;;;;;;;6250157;23;20024;-87
2021/01/23 04:05:11;;;;;;;64.15;29.63;;;;;;;;;;6249642;23;20024;-88
2021/01/23 04:07:37;;;;;;;56.55;29.17;;;;;;;;;;6249981;23;20038;-87
2021/01/23 04:10:04;;;;;;;62.35;30.45;;;;;;;;;;6239552;23;20012;-88
2021/01/23 04:12:31;;;;;;;83.40;31.80;;;;;;;;;;6239644;23;20202;-88
2021/01/23 04:14:58;;;;;;;64.82;31.02;;;;;;;;;;6265560;23;20024;-87
2021/01/23 04:17:24;;;;;;;64.85;30.45;;;;;;;;;;6223895;23;20035;-88
2021/01/23 04:19:50;;;;;;;65.47;31.83;;;;;;;;;;6249539;23;20024;-87
2021/01/23 04:22:25;;;;;;;63.15;29.45;;;;;;;;;;6222191;23;20448;-87
2021/01/23 04:24:51;;;;;;;68.10;30.57;;;;;;;;;;6247882;23;20024;-87
2021/01/23 04:27:17;;;;;;;66.80;29.35;;;;;;;;;;6221437;23;20042;-88
2021/01/23 04:29:47;;;;;;;60.35;28.20;;;;;;;;;;6221319;23;20076;-87
2021/01/23 04:32:13;;;;;;;66.43;28.23;;;;;;;;;;6220453;23;20078;-88
2021/01/23 04:34:39;;;;;;;59.38;27.25;;;;;;;;;;6221542;23;20024;-87
2021/01/23 04:37:09;;;;;;;58.38;28.77;;;;;;;;;;6221754;23;20052;-87
2021/01/23 04:39:36;;;;;;;69.95;30.23;;;;;;;;;;6221663;23;20271;-88
2021/01/23 04:42:06;;;;;;;55.10;29.20;;;;;;;;;;6248840;23;20293;-87
2021/01/23 04:44:37;;;;;;;54.97;27.60;;;;;;;;;;6248765;23;20020;-87
2021/01/23 04:47:03;;;;;;;56.78;29.38;;;;;;;;;;6247400;23;20330;-88
2021/01/23 04:49:33;;;;;;;60.00;30.00;;;;;;;;;;6225768;22;20012;-88
2021/01/23 04:52:03;;;;;;;57.78;30.08;;;;;;;;;;6221969;23;20272;-87
2021/01/23 04:54:31;;;;;;;60.13;29.13;;;;;;;;;;6221203;23;20028;-87
2021/01/23 04:56:57;;;;;;;58.50;27.92;;;;;;;;;;6247696;23;20223;-87
2021/01/23 04:59:23;;;;;;;59.33;28.30;;;;;;;;;;6247045;23;20446;-88
2021/01/23 05:02:07;;;;;;;55.15;28.55;;;;;;;;;;6246477;23;20032;-87
2021/01/23 05:04:48;;;;;;;57.58;27.85;;;;;;;;;;6221338;23;20028;-87
2021/01/23 05:07:24;;;;;;;57.72;28.25;;;;;;;;;;6227687;23;20115;-88
2021/01/23 05:09:50;;;;;;;;;;;;;;;;;;6234997;23;20028;-88
2021/01/23 05:12:34;;;;;;;62.97;29.05;;;;;;;;;;6251160;23;19916;-88
2021/01/23 05:15:01;;;;;;;60.47;28.63;;;;;;;;;;6220991;23;20032;-88
2021/01/23 05:17:31;;;;;;;55.40;29.42;;;;;;;;;;6221358;23;20526;-88
2021/01/23 05:19:57;;;;;;;55.83;28.30;;;;;;;;;;6221189;23;20020;-88
2021/01/23 05:22:24;;;;;;;67.40;28.25;;;;;;;;;;6247541;23;20036;-88
2021/01/23 05:24:51;;;;;;;64.10;28.80;;;;;;;;;;6221297;23;20024;-88
2021/01/23 05:27:17;;;;;;;63.35;29.40;;;;;;;;;;6222511;23;20028;-88
2021/01/23 05:29:57;;;;;;;65.05;27.98;;;;;;;;;;6224688;23;20039;-88
2021/01/23 05:32:23;;;;;;;58.70;29.00;;;;;;;;;;6241313;22;20023;-88
2021/01/23 05:34:49;;;;;;;55.45;28.35;;;;;;;;;;6242871;22;20019;-88
2021/01/23 05:37:37;;;;;;;62.95;30.13;;;;;;;;;;6242893;22;20105;-89
2021/01/23 05:40:09;;;;;;;64.97;29.73;;;;;;;;;;6267819;23;20205;-88
2021/01/23 05:42:44;;;;;;;67.05;30.63;;;;;;;;;;6230350;23;20035;-88
2021/01/23 05:45:22;;;;;;;70.50;31.48;;;;;;;;;;6230967;23;20032;-88
2021/01/23 05:47:49;;;;;;;65.05;31.75;;;;;;;;;;6253738;23;20032;-87
2021/01/23 05:50:24;;;;;;;62.30;29.35;;;;;;;;;;6228251;23;20406;-87
2021/01/23 05:52:53;;;;;;;63.30;29.77;;;;;;;;;;6226865;23;20028;-87
2021/01/23 05:55:22;;;;;;;60.05;28.52;;;;;;;;;;6253742;23;20036;-88
2021/01/23 05:57:48;;;;;;;62.83;31.42;;;;;;;;;;6238472;23;20051;-88
2021/01/23 06:00:20;;;;;;;67.63;31.35;;;;;;;;;;6265020;23;20012;-87
2021/01/23 06:02:50;;;;;;;63.42;30.95;;;;;;;;;;6265372;23;20080;-87
2021/01/23 06:05:20;;;;;;;60.50;30.23;;;;;;;;;;6229640;23;20038;-87
2021/01/23 06:07:49;;;;;;;63.80;30.23;;;;;;;;;;6252305;23;20035;-87
2021/01/23 06:10:22;;;;;;;62.00;30.35;;;;;;;;;;6233722;22;20023;-87
2021/01/23 06:12:49;;;;;;;56.72;29.15;;;;;;;;;;6241837;22;20020;-87
2021/01/23 06:15:31;;;;;;;68.05;31.88;;;;;;;;;;6230053;23;20032;-87
2021/01/23 06:17:58;;;;;;;65.80;30.95;;;;;;;;;;6250807;23;20086;-87
2021/01/23 06:20:47;;;;;;;56.60;28.35;;;;;;;;;;6223753;23;20166;-87
2021/01/23 06:23:16;;;;;;;61.75;30.42;;;;;;;;;;6232620;22;20016;-86
2021/01/23 06:25:48;;;;;;;68.57;30.25;;;;;;;;;;6267283;22;20053;-88
2021/01/23 06:28:15;;;;;;;63.28;29.38;;;;;;;;;;6239697;22;20110;-88
2021/01/23 06:30:41;;;;;;;59.45;29.58;;;;;;;;;;6250036;23;20135;-88
2021/01/23 06:33:22;;;;;;;60.65;30.35;;;;;;;;;;6248514;23;20093;-88
2021/01/23 06:36:01;;;;;;;63.88;31.25;;;;;;;;;;6256304;22;20048;-88
2021/01/23 06:38:28;;;;;;;62.35;30.30;;;;;;;;;;6241328;22;20028;-87
2021/01/23 06:40:55;;;;;;;56.03;30.42;;;;;;;;;;6230725;23;20178;-88
2021/01/23 06:43:21;;;;;;;61.75;30.75;;;;;;;;;;6222231;23;20074;-88
2021/01/23 06:45:47;;;;;;;65.00;31.27;;;;;;;;;;6227571;23;20047;-88
2021/01/23 06:48:13;;;;;;;56.75;29.67;;;;;;;;;;6225899;23;20028;-88
2021/01/23 06:50:43;;;;;;;61.55;31.67;;;;;;;;;;6225817;23;20099;-88
2021/01/23 06:53:09;;;;;;;52.97;30.38;;;;;;;;;;6227339;22;20038;-88
2021/01/23 06:55:40;;;;;;;61.42;32.30;;;;;;;;;;6226385;23;20189;-87
2021/01/23 06:58:31;;;;;;;62.65;30.52;;;;;;;;;;6253568;23;20076;-87
2021/01/23 07:01:01;;;;;;;60.75;32.88;;;;;;;;;;6226041;23;20145;-86
2021/01/23 07:03:29;;;;;;;66.57;31.70;;;;;;;;;;6230143;23;20090;-86
2021/01/23 07:05:57;;;;;;;60.05;30.58;;;;;;;;;;6227491;23;20039;-86
2021/01/23 07:08:27;;;;;;;58.60;31.65;;;;;;;;;;6228368;23;20039;-86
2021/01/23 07:11:05;;;;;;;62.05;30.90;;;;;;;;;;6230820;23;20039;-87
2021/01/23 07:13:32;;;;;;;57.75;30.98;;;;;;;;;;6256469;23;20103;-86
2021/01/23 07:16:00;;;;;;;58.42;31.08;;;;;;;;;;6238427;23;20032;-85
2021/01/23 07:18:26;;;;;;;70.40;32.67;;;;;;;;;;6242023;22;20051;-85
2021/01/23 07:20:59;;;;;;;56.67;30.67;;;;;;;;;;6242134;22;20023;-86
2021/01/23 07:23:29;;;;;;;61.35;31.67;;;;;;;;;;6244835;22;20012;-87
2021/01/23 07:25:58;;;;;;;57.38;31.08;;;;;;;;;;6233970;23;20066;-87
2021/01/23 07:28:25;;;;;;;59.47;32.90;;;;;;;;;;6254202;23;20039;-86
2021/01/23 07:30:52;;;;;;;56.30;30.52;;;;;;;;;;6227840;23;20056;-86
2021/01/23 07:33:31;;;;;;;62.22;29.92;;;;;;;;;;6259992;23;20110;-87
2021/01/23 07:35:57;;;;;;;58.88;29.80;;;;;;;;;;6258012;23;20142;-87
2021/01/23 07:38:24;;;;;;;58.40;30.15;;;;;;;;;;6228045;23;20077;-87
2021/01/23 07:40:52;;;;;;;64.82;31.02;;;;;;;;;;6228071;23;20024;-87
2021/01/23 07:43:22;;;;;;;55.20;30.10;;;;;;;;;;6252959;23;20415;-87
2021/01/23 07:45:48;;;;;;;53.85;29.63;;;;;;;;;;6225955;23;20039;-87
2021/01/23 07:48:17;;;;;;;53.50;29.52;;;;;;;;;;6267565;22;20099;-87
2021/01/23 07:50:45;;;;;;;52.97;28.95;;;;;;;;;;6223978;23;20047;-86
2021/01/23 07:53:13;;;;;;;52.88;29.35;;;;;;;;;;6223755;23;20115;-86
2021/01/23 07:55:45;;;;;;;54.85;29.48;;;;;;;;;;6224071;23;20028;-86
2021/01/23 07:58:12;;;;;;;53.92;29.25;;;;;;;;;;6222573;23;20028;-87
2021/01/23 08:00:39;;;;;;;55.63;28.27;;;;;;;;;;6224016;23;20351;-86
2021/01/23 08:03:06;;;;;;;60.42;30.35;;;;;;;;;;6223350;23;20028;-86
2021/01/23 08:05:49;;;;;;;46.55;28.80;;;;;;;;;;6222353;23;20034;-87
2021/01/23 08:08:34;;;;;;;50.00;28.38;;;;;;;;;;6223574;23;20108;-87
2021/01/23 08:11:02;;;;;;;53.67;28.98;;;;;;;;;;6225416;23;20085;-86
2021/01/23 08:13:31;;;;;;;56.50;29.85;;;;;;;;;;6224187;23;20032;-87
2021/01/23 08:16:16;;;;;;;50.45;29.40;;;;;;;;;;6222703;23;20028;-87
2021/01/23 08:18:43;;;;;;;52.85;28.63;;;;;;;;;;6250883;23;20074;-87
2021/01/23 08:21:47;;;;;;;57.28;30.73;;;;;;;;;;6232757;22;20012;-89
2021/01/23 08:24:32;;;;;;;54.22;29.60;;;;;;;;;;6161833;23;20047;-85
2021/01/23 08:27:18;;;;;;;56.27;29.27;;;;;;;;;;6225112;23;20032;-86
2021/01/23 08:29:51;;;;;;;49.05;25.70;;;;;;;;;;6235690;22;20430;-87
2021/01/23 08:32:18;;;;;;;50.83;27.30;;;;;;;;;;6227336;23;20024;-87
2021/01/23 08:34:45;;;;;;;45.78;26.88;;;;;;;;;;6236342;23;20068;-87
2021/01/23 08:37:13;;;;;;;48.67;25.95;;;;;;;;;;6263379;23;20079;-85
2021/01/23 08:39:47;;;;;;;52.67;25.55;;;;;;;;;;6235412;23;20044;-85
2021/01/23 08:42:34;;;;;;;48.78;25.50;;;;;;;;;;6256136;23;20052;-87
2021/01/23 08:45:00;;;;;;;45.67;25.40;;;;;;;;;;6225728;23;20103;-85
2021/01/23 08:50:58;;;;;;;50.80;27.02;;;;;;;;;;6250605;23;20264;-85
2021/01/23 08:53:26;;;;;;;49.05;26.38;;;;;;;;;;6227115;23;20028;-85
2021/01/23 08:55:53;;;;;;;52.38;23.60;;;;;;;;;;6250745;23;20530;-86
2021/01/23 08:58:25;;;;;;;49.13;25.35;;;;;;;;;;6224847;23;20036;-85
2021/01/23 09:00:52;;;;;;;53.60;26.10;;;;;;;;;;6227363;23;20210;-86
2021/01/23 09:03:19;;;;;;;48.38;24.33;;;;;;;;;;6264542;22;20032;-85
2021/01/23 09:05:46;;;;;;;44.10;23.77;;;;;;;;;;6230962;22;20025;-86
2021/01/23 09:08:12;;;;;;;41.35;23.35;;;;;;;;;;6223088;23;20028;-86
2021/01/23 09:10:50;;;;;;;43.90;24.08;;;;;;;;;;6228648;23;20027;-86
2021/01/23 09:13:16;;;;;;;;;;;;;;;;;;6224102;23;20115;-86
2021/01/23 09:15:42;;;;;;;35.95;21.23;;;;;;;;;;6222925;23;19931;-85
2021/01/23 09:18:10;;;;;;;41.58;22.33;;;;;;;;;;6224480;23;20034;-86
2021/01/23 09:20:37;;;;;;;35.80;21.27;;;;;;;;;;6253782;23;20024;-83
2021/01/23 09:23:09;;;;;;;41.17;19.80;;;;;;;;;;6226778;23;20070;-85
2021/01/23 09:25:36;;;;;;;37.35;19.20;;;;;;;;;;6224725;23;20051;-85
2021/01/23 09:28:25;;;;;;;35.55;19.10;;;;;;;;;;6224299;23;20032;-85
2021/01/23 09:30:54;;;;;;;33.42;19.52;;;;;;;;;;6224904;23;20028;-85
2021/01/23 09:33:21;;;;;;;35.15;18.42;;;;;;;;;;6225996;23;20028;-85
2021/01/23 09:35:49;;;;;;;35.65;18.55;;;;;;;;;;6251868;23;20024;-84
2021/01/23 09:38:16;;;;;;;40.80;20.10;;;;;;;;;;6249777;23;20078;-85
2021/01/23 09:40:43;;;;;;;34.75;19.38;;;;;;;;;;6226842;23;20032;-84
2021/01/23 09:43:10;;;;;;;36.97;17.80;;;;;;;;;;6226952;23;20024;-85
2021/01/23 09:45:43;;;;;;;32.78;18.20;;;;;;;;;;6255165;23;20024;-85
2021/01/23 09:48:10;;;;;;;37.25;18.48;;;;;;;;;;6225294;23;20028;-86
2021/01/23 09:50:47;;;;;;;44.17;18.98;;;;;;;;;;6228076;23;20274;-87
2021/01/23 09:53:15;;;;;;;41.78;20.30;;;;;;;;;;6226361;23;20051;-88
2021/01/23 09:55:44;;;;;;;48.38;20.15;;;;;;;;;;6233369;22;20038;-87
2021/01/23 09:58:12;;;;;;;49.88;19.75;;;;;;;;;;6242450;22;20046;-87
2021/01/23 10:00:41;;;;;;;43.63;18.00;;;;;;;;;;6242088;22;20201;-89
2021/01/23 10:03:09;;;;;;;40.38;19.67;;;;;;;;;;6228572;23;20035;-88
2021/01/23 10:05:39;;;;;;;48.90;19.50;;;;;;;;;;6227084;23;20024;-88
2021/01/23 10:08:06;;;;;;;43.70;18.83;;;;;;;;;;6228052;23;20034;-88
2021/01/23 10:10:39;;;;;;;41.92;18.80;;;;;;;;;;6266975;22;20012;-87
2021/01/23 10:13:10;;;;;;;41.25;19.38;;;;;;;;;;6236125;22;20039;-88
2021/01/23 10:15:41;;;;;;;36.42;18.45;;;;;;;;;;6233786;23;20027;-88
2021/01/23 10:18:34;;;;;;;;;;;;;;;;;;;;;
2021/01/23 10:25:01;;;;;;;31.80;16.73;;;;;;;;;;6242138;23;20032;-89
2021/01/23 10:27:50;;;;;;;32.25;17.13;;;;;;;;;;6230218;23;20035;-89
2021/01/23 10:30:17;;;;;;;29.15;16.33;;;;;;;;;;6256097;23;20024;-89
2021/01/23 10:32:44;;;;;;;26.92;15.85;;;;;;;;;;6265967;23;20192;-88
2021/01/23 10:35:12;;;;;;;29.17;16.30;;;;;;;;;;6266663;22;20083;-89
2021/01/23 10:37:39;;;;;;;27.33;16.30;;;;;;;;;;6241125;22;20092;-89
2021/01/23 10:40:07;;;;;;;27.40;14.52;;;;;;;;;;6238538;23;20054;-89
2021/01/23 10:42:43;;;;;;;33.58;16.05;;;;;;;;;;6235062;23;20028;-89
2021/01/23 10:45:09;;;;;;;29.08;15.30;;;;;;;;;;6254743;23;20034;-89
2021/01/23 10:47:36;;;;;;;27.60;15.45;;;;;;;;;;6253209;23;20020;-88
2021/01/23 10:50:04;;;;;;;33.35;15.38;;;;;;;;;;6225963;23;20051;-88
2021/01/23 10:52:31;;;;;;;25.10;14.52;;;;;;;;;;6264184;23;20186;-89
2021/01/23 10:55:00;;;;;;;31.25;15.15;;;;;;;;;;6237366;23;20028;-88
2021/01/23 10:57:27;;;;;;;30.58;14.05;;;;;;;;;;6261756;23;20016;-87
2021/01/23 10:59:54;;;;;;;33.50;14.02;;;;;;;;;;6265085;22;20043;-88
2021/01/23 11:02:21;;;;;;;33.17;15.10;;;;;;;;;;6237050;23;20038;-89
2021/01/23 11:04:52;;;;;;;25.70;14.07;;;;;;;;;;6261431;23;20249;-89
2021/01/23 11:07:19;;;;;;;28.33;14.48;;;;;;;;;;6228531;23;20050;-86
2021/01/23 11:09:49;;;;;;;20.75;13.13;;;;;;;;;;6224994;23;20028;-86
2021/01/23 11:12:23;;;;;;;25.73;12.98;;;;;;;;;;6253481;23;20027;-86
2021/01/23 11:14:52;;;;;;;28.20;12.98;;;;;;;;;;6253251;23;20039;-85
2021/01/23 11:17:22;;;;;;;24.67;13.18;;;;;;;;;;6227896;23;20023;-85
2021/01/23 11:19:51;;;;;;;19.08;12.27;;;;;;;;;;6225879;23;20039;-85
2021/01/23 11:22:19;;;;;;;22.65;13.05;;;;;;;;;;6225243;23;20076;-85
2021/01/23 11:24:47;;;;;;;24.63;13.65;;;;;;;;;;6223966;23;20235;-85
2021/01/23 11:27:26;;;;;;;23.02;13.57;;;;;;;;;;6228731;23;20035;-86
2021/01/23 11:30:01;;;;;;;24.38;12.07;;;;;;;;;;6263637;23;20028;-86
2021/01/23 11:33:01;;;;;;;23.27;12.00;;;;;;;;;;6244340;22;20020;-86
2021/01/23 11:35:45;;;;;;;22.92;11.77;;;;;;;;;;6246829;22;20024;-86
2021/01/23 11:38:12;;;;;;;21.33;11.98;;;;;;;;;;6248273;23;20030;-86
2021/01/23 11:40:38;;;;;;;22.90;12.68;;;;;;;;;;6221667;23;20032;-83
2021/01/23 11:43:05;;;;;;;27.48;12.35;;;;;;;;;;6249319;23;20150;-84
2021/01/23 11:45:31;;;;;;;23.45;12.57;;;;;;;;;;6223494;23;20039;-84
2021/01/23 11:48:06;;;;;;;20.67;12.63;;;;;;;;;;6224587;23;20028;-86
2021/01/23 11:50:38;;;;;;;17.15;11.13;;;;;;;;;;6249838;23;20028;-83
2021/01/23 11:53:07;;;;;;;23.13;10.63;;;;;;;;;;6257259;22;20012;-84
2021/01/23 11:55:38;;;;;;;18.58;10.98;;;;;;;;;;6239682;22;20152;-84
2021/01/23 11:58:04;;;;;;;21.30;11.75;;;;;;;;;;6234679;22;20024;-84
2021/01/23 12:00:35;;;;;;;16.33;10.77;;;;;;;;;;6234033;23;20039;-85
2021/01/23 12:03:04;;;;;;;19.58;12.02;;;;;;;;;;6251752;23;20025;-84
2021/01/23 12:05:38;;;;;;;21.05;11.95;;;;;;;;;;6222013;23;20552;-84
2021/01/23 12:08:06;;;;;;;23.77;11.13;;;;;;;;;;6256022;22;20287;-85
2021/01/23 12:10:34;;;;;;;18.92;10.90;;;;;;;;;;6265010;22;20020;-85
2021/01/23 12:13:05;;;;;;;19.33;11.23;;;;;;;;;;6238410;22;20023;-84
2021/01/23 12:15:37;;;;;;;24.15;11.13;;;;;;;;;;6264299;22;20066;-85
2021/01/23 12:18:07;;;;;;;18.00;9.52;;;;;;;;;;6237643;22;20023;-84
2021/01/23 12:20:34;;;;;;;17.75;9.52;;;;;;;;;;6231396;22;20035;-84
2021/01/23 12:23:00;;;;;;;18.80;8.77;;;;;;;;;;6230714;22;20031;-84
2021/01/23 12:25:30;;;;;;;13.77;9.10;;;;;;;;;;6225951;23;20028;-84
2021/01/23 12:27:56;;;;;;;13.82;8.32;;;;;;;;;;6228510;23;20024;-84
2021/01/23 12:30:23;;;;;;;17.15;9.07;;;;;;;;;;6253227;23;20024;-84
2021/01/23 12:32:59;;;;;;;14.00;9.32;;;;;;;;;;6226688;23;20078;-84
2021/01/23 12:35:25;;;;;;;15.00;8.00;;;;;;;;;;6227327;23;20095;-84
2021/01/23 12:37:57;;;;;;;17.23;8.32;;;;;;;;;;6249477;23;20036;-84
2021/01/23 12:40:27;;;;;;;15.20;8.55;;;;;;;;;;6250031;23;20035;-84
2021/01/23 12:42:54;;;;;;;15.15;8.95;;;;;;;;;;6223634;23;20047;-84
2021/01/23 12:45:20;;;;;;;13.23;7.85;;;;;;;;;;6221289;23;20230;-84
2021/01/23 12:47:49;;;;;;;23.30;8.88;;;;;;;;;;6247855;23;20129;-84
2021/01/23 12:50:38;;;;;;;18.40;9.52;;;;;;;;;;6255641;23;20028;-86
2021/01/23 12:53:16;;;;;;;18.33;9.55;;;;;;;;;;6224188;23;20048;-85
2021/01/23 12:55:56;;;;;;;15.40;8.80;;;;;;;;;;6261391;22;20036;-87
2021/01/23 12:58:23;;;;;;;14.38;9.98;;;;;;;;;;6225441;23;20055;-88
2021/01/23 13:00:50;;;;;;;18.40;9.85;;;;;;;;;;6232153;23;20034;-87
2021/01/23 13:03:20;;;;;;;17.08;9.95;;;;;;;;;;6263124;22;20016;-89
2021/01/23 13:05:46;;;;;;;21.10;10.32;;;;;;;;;;6235235;22;20012;-87
2021/01/23 13:08:20;;;;;;;22.42;10.65;;;;;;;;;;6261095;22;20075;-87
2021/01/23 13:10:47;;;;;;;17.80;9.93;;;;;;;;;;6226983;22;20076;-88
2021/01/23 13:13:14;;;;;;;21.75;9.52;;;;;;;;;;6221847;23;20209;-87
2021/01/23 13:15:53;;;;;;;17.52;9.35;;;;;;;;;;6219736;23;20369;-86
2021/01/23 13:18:22;;;;;;;20.38;9.88;;;;;;;;;;6228271;23;20029;-87
2021/01/23 13:20:49;;;;;;;14.00;8.95;;;;;;;;;;6221561;23;20285;-87
2021/01/23 13:23:16;;;;;;;12.55;8.50;;;;;;;;;;6232947;22;20405;-87
2021/01/23 13:25:48;;;;;;;23.77;9.60;;;;;;;;;;6248547;23;20028;-87
2021/01/23 13:28:18;;;;;;;15.32;8.35;;;;;;;;;;6251302;23;20114;-87
2021/01/23 13:30:44;;;;;;;14.95;8.57;;;;;;;;;;6235436;22;20174;-87
2021/01/23 13:33:11;;;;;;;16.63;8.05;;;;;;;;;;6236405;22;20076;-87
2021/01/23 13:35:54;;;;;;;12.43;8.00;;;;;;;;;;6219962;23;20035;-87
2021/01/23 13:41:51;;;;;;;16.98;8.70;;;;;;;;;;6247866;22;20022;-88
2021/01/23 13:44:17;;;;;;;13.10;8.18;;;;;;;;;;6236207;22;20386;-84
2021/01/23 13:46:44;;;;;;;16.10;8.13;;;;;;;;;;6227712;23;20024;-85
2021/01/23 13:49:11;;;;;;;11.18;8.07;;;;;;;;;;6225862;23;20245;-87
2021/01/23 13:51:47;;;;;;;18.70;8.10;;;;;;;;;;6215589;23;20024;-87
2021/01/23 13:54:13;;;;;;;;;;;;;;;;;;6218487;23;20024;-87
2021/01/23 13:56:41;;;;;;;12.55;6.88;;;;;;;;;;6222446;23;19920;-87
2021/01/23 13:59:07;;;;;;;8.65;6.63;;;;;;;;;;6249412;23;20048;-87
2021/01/23 14:01:33;;;;;;;12.77;6.72;;;;;;;;;;6248259;23;20386;-87
2021/01/23 14:04:00;;;;;;;9.93;6.70;;;;;;;;;;6250884;23;20309;-87
2021/01/23 14:06:51;;;;;;;11.00;6.68;;;;;;;;;;6234116;23;20076;-87
2021/01/23 14:09:20;;;;;;;11.48;6.70;;;;;;;;;;6224513;23;20024;-87
2021/01/23 14:14:54;;;;;;;9.98;6.20;;;;;;;;;;6195461;23;20024;-86
2021/01/23 14:17:20;;;;;;;12.05;5.85;;;;;;;;;;6219984;23;20031;-85
2021/01/23 14:19:47;;;;;;;11.25;5.68;;;;;;;;;;6221775;23;20224;-86
2021/01/23 14:22:21;;;;;;;8.88;5.75;;;;;;;;;;6247570;23;20115;-82
2021/01/23 14:24:51;;;;;;;13.90;5.78;;;;;;;;;;6229452;23;20012;-84
2021/01/23 14:28:00;;;;;;;46.83;26.30;;;;;;;;;;6255010;23;20031;-86
2021/01/23 14:30:27;;;;;;;116.95;57.72;;;;;;;;;;6223182;23;20028;-84
2021/01/23 14:32:53;;;;;;;32.05;19.33;;;;;;;;;;6223076;23;20028;-84
2021/01/23 14:35:20;;;;;;;10.45;6.63;;;;;;;;;;6224124;23;20072;-83
2021/01/23 14:37:51;;;;;;;15.80;10.93;;;;;;;;;;6252550;23;20031;-85
2021/01/23 14:40:23;;;;;;;9.90;5.88;;;;;;;;;;6224931;23;20024;-84
2021/01/23 14:42:53;;;;;;;13.20;6.10;;;;;;;;;;6225495;22;20028;-83
2021/01/23 14:45:21;;;;;;;12.82;9.50;;;;;;;;;;6237739;22;20042;-82
2021/01/23 14:47:54;;;;;;;13.15;6.90;;;;;;;;;;6255351;22;20434;-84
2021/01/23 14:50:21;;;;;;;13.77;7.57;;;;;;;;;;6225871;23;20032;-85
2021/01/23 14:52:52;;;;;;;12.15;6.10;;;;;;;;;;6246236;23;20141;-85